ZBAA/PEK METAR and TAF weather

Enter ICAO airport designator
Station Type Date Time Source
ZBAA METAR 2019/12/06 02:00 UTC NOAA

ZBAA 060200Z VRB01MPS CAVOK M03/M11 Q1038 NOSIG


Station Type Date Time Source
ZBAA Decoded METAR 2019/12/06 02:00 UTC NOAA

Beijing, China (ZBAA) 39-56N 116-17E 55M
Dec 05, 2019 - 09:00 PM EST / 2019.12.06 0200 UTC
Wind: Variable at 2 MPH (2 KT):0
Visibility: greater than 7 mile(s):0
Temperature: 26 F (-3 C)
Dew Point: 12 F (-11 C)
Relative Humidity: 53%
Pressure (altimeter): 30.65 in. Hg (1038 hPa)
ob: ZBAA 060200Z VRB01MPS CAVOK M03/M11 Q1038 NOSIG
cycle: 2

Station Type Date Time Source
ZBAA TAF 2019/12/05 18:03 UTC NOAA

TAF TAF ZBAA 051520Z 0518/0618 19004MPS CAVOK TX03/0607Z TNM08/21Z

Example: see airport list